Felix-Klein-Gymnasium, Gttingen, 150m NN
Donnes mto: Actuelle Donnerstag, 19.10.2017 17:45
Date Horaire Temp. E. Hum. E. P.atmo. Pluie Vent Direction Direction Ensoleilleme P. de rose Temp au vent Rafales
19.10.2017 17:45 18,4 C 67 % 1009,1 hPa 0,0 mm 8,6 km/h (2 Bft) O-NO 293 0 min 12,2 C 18,4 C 16,1 km/h (3 Bft)
19.10.2017 17:30 18,8 C 66 % 1009,1 hPa 0,0 mm 7,5 km/h (2 Bft) O-NO 285 0 min 12,3 C 18,8 C 19,3 km/h (3 Bft)
19.10.2017 17:15 19,1 C 66 % 1009,1 hPa 0,0 mm 7,3 km/h (2 Bft) O-NO 291 0 min 12,6 C 19,1 C 16,1 km/h (3 Bft)
19.10.2017 17:00 19,3 C 65 % 1009,2 hPa 0,0 mm 7,4 km/h (2 Bft) NO 315 0 min 12,6 C 19,3 C 16,1 km/h (3 Bft)
19.10.2017 16:45 19,6 C 63 % 1009,3 hPa 0,0 mm 7,7 km/h (2 Bft) O-NO 285 0 min 12,4 C 19,6 C 19,3 km/h (3 Bft)
19.10.2017 16:30 19,8 C 63 % 1009,3 hPa 0,0 mm 9,8 km/h (2 Bft) O-NO 300 0 min 12,5 C 19,8 C 19,3 km/h (3 Bft)
19.10.2017 16:15 19,9 C 62 % 1009,4 hPa 0,0 mm 10,2 km/h (2 Bft) NO 315 15 min 12,4 C 19,9 C 22,5 km/h (4 Bft)
19.10.2017 16:00 20,0 C 62 % 1009,6 hPa 0,0 mm 9,4 km/h (2 Bft) N 358 15 min 12,5 C 20,0 C 17,7 km/h (3 Bft)
19.10.2017 15:45 20,0 C 61 % 1009,7 hPa 0,0 mm 9,4 km/h (2 Bft) O 274 15 min 12,2 C 20,0 C 22,5 km/h (4 Bft)
19.10.2017 15:30 19,8 C 61 % 1009,8 hPa 0,0 mm 11,7 km/h (2 Bft) N-NO 341 15 min 12,1 C 19,8 C 20,9 km/h (4 Bft)
19.10.2017 15:15 19,8 C 61 % 1010,1 hPa 0,0 mm 10,2 km/h (2 Bft) N-NO 329 15 min 12,1 C 19,8 C 22,5 km/h (4 Bft)
19.10.2017 15:00 19,8 C 61 % 1010,2 hPa 0,0 mm 7,5 km/h (2 Bft) O 277 15 min 12,1 C 19,8 C 17,7 km/h (3 Bft)
19.10.2017 14:45 19,7 C 62 % 1010,4 hPa 0,0 mm 7,5 km/h (2 Bft) NO 325 15 min 12,2 C 19,7 C 16,1 km/h (3 Bft)
19.10.2017 14:30 19,7 C 61 % 1010,4 hPa 0,0 mm 7,2 km/h (2 Bft) O-NO 289 15 min 12,0 C 19,7 C 20,9 km/h (4 Bft)
19.10.2017 14:15 19,4 C 61 % 1010,6 hPa 0,0 mm 10,6 km/h (2 Bft) N 2 15 min 11,7 C 19,4 C 22,5 km/h (4 Bft)
19.10.2017 14:00 19,2 C 61 % 1010,8 hPa 0,0 mm 7,7 km/h (2 Bft) N-NO 329 0 min 11,5 C 19,2 C 17,7 km/h (3 Bft)
19.10.2017 13:45 19,0 C 63 % 1010,9 hPa 0,0 mm 5,7 km/h (1 Bft) O 281 15 min 11,8 C 19,0 C 14,5 km/h (3 Bft)
19.10.2017 13:30 18,4 C 64 % 1011,1 hPa 0,0 mm 7,1 km/h (2 Bft) N-NO 342 0 min 11,5 C 18,4 C 16,1 km/h (3 Bft)
19.10.2017 13:15 18,9 C 65 % 1011,2 hPa 0,0 mm 3,4 km/h (1 Bft) N-NO 348 0 min 12,2 C 18,9 C 11,3 km/h (2 Bft)
19.10.2017 13:00 18,5 C 69 % 1011,3 hPa 0,0 mm 2,4 km/h (1 Bft) N 354 0 min 12,7 C 18,5 C 11,3 km/h (2 Bft)
19.10.2017 12:45 18,2 C 70 % 1011,5 hPa 0,0 mm 4,4 km/h (1 Bft) N-NE 24 15 min 12,6 C 18,2 C 12,9 km/h (3 Bft)
19.10.2017 12:30 17,8 C 72 % 1011,7 hPa 0,0 mm 2,8 km/h (1 Bft) N 4 15 min 12,7 C 17,8 C 11,3 km/h (2 Bft)
19.10.2017 12:15 17,2 C 77 % 1011,8 hPa 0,0 mm 0,7 km/h (0 Bft) O-NO 294 15 min 13,1 C 17,2 C 6,4 km/h (2 Bft)
19.10.2017 12:00 16,3 C 79 % 1011,8 hPa 0,0 mm 0,4 km/h (0 Bft) N-NO 329 15 min 12,6 C 16,3 C 4,8 km/h (1 Bft)
19.10.2017 11:45 15,5 C 81 % 1012,0 hPa 0,0 mm 0,3 km/h (0 Bft) N 354 15 min 12,3 C 15,5 C 4,8 km/h (1 Bft)
19.10.2017 11:30 14,7 C 82 % 1012,1 hPa 0,0 mm 0,1 km/h (0 Bft) N-NO 347 15 min 11,7 C 14,7 C 3,2 km/h (1 Bft)
19.10.2017 11:15 13,9 C 85 % 1012,2 hPa 0,0 mm 0,1 km/h (0 Bft) N-NO 347 15 min 11,4 C 13,9 C 1,6 km/h (1 Bft)
19.10.2017 11:00 13,0 C 87 % 1012,2 hPa 0,0 mm 0,2 km/h (0 Bft) N-NO 348 15 min 10,9 C 13,0 C 3,2 km/h (1 Bft)
19.10.2017 10:45 12,1 C 91 % 1012,0 hPa 0,0 mm 0,1 km/h (0 Bft) N-NO 348 15 min 10,7 C 12,1 C 3,2 km/h (1 Bft)
19.10.2017 10:30 11,3 C 94 % 1012,0 hPa 0,0 mm 0,3 km/h (0 Bft) N-NO 348 15 min 10,4 C 11,3 C 4,8 km/h (1 Bft)
19.10.2017 10:15 10,6 C 96 % 1012,0 hPa 0,0 mm 0,1 km/h (0 Bft) O-SO 237 15 min 10,0 C 10,6 C 3,2 km/h (1 Bft)
19.10.2017 10:00 9,8 C 97 % 1012,1 hPa 0,0 mm 0,0 km/h (0 Bft) S-SO 212 15 min 9,3 C 9,8 C 1,6 km/h (1 Bft)
19.10.2017 09:45 9,0 C 97 % 1012,2 hPa 0,0 mm 0,0 km/h (0 Bft) SE 140 15 min 8,5 C 9,0 C 0,0 km/h (0 Bft)
19.10.2017 09:30 8,4 C 97 % 1012,3 hPa 0,0 mm 0,0 km/h (0 Bft) SE 140 15 min 8,0 C 8,4 C 1,6 km/h (1 Bft)
19.10.2017 09:15 7,9 C 97 % 1012,3 hPa 0,0 mm 0,0 km/h (0 Bft) N 1 0 min 7,5 C 7,9 C 0,0 km/h (0 Bft)
19.10.2017 09:00 7,7 C 97 % 1012,2 hPa 0,0 mm 0,0 km/h (0 Bft) N 1 0 min 7,3 C 7,7 C 0,0 km/h (0 Bft)
19.10.2017 08:45 7,6 C 97 % 1012,1 hPa 0,0 mm 0,0 km/h (0 Bft) NO 315 0 min 7,2 C 7,6 C 0,0 km/h (0 Bft)
19.10.2017 08:30 7,1 C 97 % 1012,1 hPa 0,0 mm 0,0 km/h (0 Bft) NO 315 0 min 6,7 C 7,1 C 1,6 km/h (1 Bft)
19.10.2017 08:15 6,8 C 96 % 1011,9 hPa 0,0 mm 0,0 km/h (0 Bft) N 9 0 min 6,2 C 6,8 C 0,0 km/h (0 Bft)
19.10.2017 08:00 6,6 C 96 % 1011,8 hPa 0,0 mm 0,0 km/h (0 Bft) NE 46 0 min 6,0 C 6,6 C 0,0 km/h (0 Bft)
19.10.2017 07:45 6,5 C 96 % 1011,8 hPa 0,0 mm 0,0 km/h (0 Bft) E-SE 114 0 min 5,9 C 6,5 C 1,6 km/h (1 Bft)
19.10.2017 07:30 6,4 C 96 % 1011,7 hPa 0,0 mm 0,0 km/h (0 Bft) N-NE 25 0 min 5,8 C 6,4 C 0,0 km/h (0 Bft)
19.10.2017 07:15 6,5 C 96 % 1011,8 hPa 0,0 mm 0,0 km/h (0 Bft) N-NE 25 0 min 5,9 C 6,5 C 1,6 km/h (1 Bft)
19.10.2017 07:00 6,6 C 96 % 1011,9 hPa 0,0 mm 0,0 km/h (0 Bft) N-NE 25 0 min 6,0 C 6,6 C 0,0 km/h (0 Bft)
19.10.2017 06:45 6,8 C 96 % 1011,9 hPa 0,0 mm 0,0 km/h (0 Bft) N-NE 25 0 min 6,2 C 6,8 C 0,0 km/h (0 Bft)
19.10.2017 06:30 6,9 C 96 % 1012,0 hPa 0,0 mm 0,0 km/h (0 Bft) N-NE 25 0 min 6,3 C 6,9 C 0,0 km/h (0 Bft)
19.10.2017 06:15 7,0 C 96 % 1012,0 hPa 0,0 mm 0,0 km/h (0 Bft) N-NE 25 0 min 6,4 C 7,0 C 0,0 km/h (0 Bft)
19.10.2017 06:00 7,1 C 96 % 1012,0 hPa 0,0 mm 0,0 km/h (0 Bft) N-NE 25 0 min 6,5 C 7,1 C 0,0 km/h (0 Bft)
19.10.2017 05:45 7,2 C 96 % 1012,0 hPa 0,0 mm 0,0 km/h (0 Bft) N-NE 25 0 min 6,6 C 7,2 C 1,6 km/h (1 Bft)
19.10.2017 05:30 7,3 C 95 % 1012,0 hPa 0,0 mm 0,0 km/h (0 Bft) N-NE 25 0 min 6,6 C 7,3 C 0,0 km/h (0 Bft)
19.10.2017 05:15 7,6 C 95 % 1012,0 hPa 0,0 mm 0,0 km/h (0 Bft) N-NE 25 0 min 6,9 C 7,6 C 0,0 km/h (0 Bft)
19.10.2017 05:00 7,7 C 95 % 1012,0 hPa 0,0 mm 0,0 km/h (0 Bft) N-NE 25 0 min 7,0 C 7,7 C 0,0 km/h (0 Bft)
19.10.2017 04:45 7,8 C 95 % 1011,9 hPa 0,0 mm 0,0 km/h (0 Bft) N-NE 25 0 min 7,0 C 7,8 C 0,0 km/h (0 Bft)
19.10.2017 04:30 7,9 C 95 % 1011,9 hPa 0,0 mm 0,0 km/h (0 Bft) N-NE 25 0 min 7,1 C 7,9 C 0,0 km/h (0 Bft)
19.10.2017 04:15 8,1 C 95 % 1012,0 hPa 0,0 mm 0,0 km/h (0 Bft) N-NE 25 0 min 7,3 C 8,1 C 0,0 km/h (0 Bft)
19.10.2017 04:00 8,3 C 95 % 1012,0 hPa 0,0 mm 0,0 km/h (0 Bft) N-NE 25 0 min 7,5 C 8,3 C 0,0 km/h (0 Bft)
19.10.2017 03:45 8,3 C 95 % 1012,0 hPa 0,0 mm 0,0 km/h (0 Bft) N-NE 25 0 min 7,5 C 8,3 C 0,0 km/h (0 Bft)
19.10.2017 03:30 8,3 C 95 % 1012,2 hPa 0,0 mm 0,0 km/h (0 Bft) N-NE 25 0 min 7,5 C 8,3 C 0,0 km/h (0 Bft)
19.10.2017 03:15 8,4 C 95 % 1012,1 hPa 0,0 mm 0,0 km/h (0 Bft) N-NE 25 0 min 7,6 C 8,4 C 0,0 km/h (0 Bft)
19.10.2017 03:00 8,4 C 95 % 1012,2 hPa 0,0 mm 0,0 km/h (0 Bft) N-NE 25 0 min 7,6 C 8,4 C 0,0 km/h (0 Bft)
19.10.2017 02:45 8,4 C 95 % 1012,2 hPa 0,0 mm 0,0 km/h (0 Bft) N-NE 25 0 min 7,6 C 8,4 C 0,0 km/h (0 Bft)
19.10.2017 02:30 8,4 C 95 % 1012,1 hPa 0,0 mm 0,0 km/h (0 Bft) N-NE 25 0 min 7,6 C 8,4 C 0,0 km/h (0 Bft)
19.10.2017 02:15 8,4 C 95 % 1012,1 hPa 0,0 mm 0,0 km/h (0 Bft) N-NE 25 0 min 7,6 C 8,4 C 3,2 km/h (1 Bft)
19.10.2017 02:00 8,6 C 95 % 1012,2 hPa 0,0 mm 0,0 km/h (0 Bft) N-NE 25 0 min 7,8 C 8,6 C 1,6 km/h (1 Bft)
19.10.2017 01:45 8,7 C 95 % 1012,1 hPa 0,0 mm 0,0 km/h (0 Bft) N-NE 25 0 min 7,9 C 8,7 C 0,0 km/h (0 Bft)
19.10.2017 01:30 8,8 C 94 % 1012,1 hPa 0,0 mm 0,0 km/h (0 Bft) N-NE 25 0 min 7,9 C 8,8 C 1,6 km/h (1 Bft)
19.10.2017 01:15 8,9 C 94 % 1012,0 hPa 0,0 mm 0,1 km/h (0 Bft) N-NE 25 0 min 8,0 C 8,9 C 3,2 km/h (1 Bft)
19.10.2017 01:00 9,3 C 93 % 1012,0 hPa 0,0 mm 0,0 km/h (0 Bft) N-NE 25 0 min 8,2 C 9,3 C 0,0 km/h (0 Bft)
19.10.2017 00:45 9,7 C 94 % 1011,8 hPa 0,0 mm 0,0 km/h (0 Bft) N-NE 25 0 min 8,8 C 9,7 C 0,0 km/h (0 Bft)
19.10.2017 00:30 9,8 C 93 % 1011,8 hPa 0,0 mm 0,0 km/h (0 Bft) N-NE 25 0 min 8,7 C 9,8 C 0,0 km/h (0 Bft)
19.10.2017 00:14 10,1 C 93 % 1011,8 hPa 0,0 mm 0,0 km/h (0 Bft) N-NE 25 0 min 9,0 C 10,1 C 0,0 km/h (0 Bft)
18.10.2017 23:59 10,2 C 94 % 1011,9 hPa 0,0 mm 0,0 km/h (0 Bft) N-NE 25 0 min 9,3 C 10,2 C 0,0 km/h (0 Bft)
18.10.2017 22:45 10,8 C 93 % 1012,0 hPa 0,0 mm 0,0 km/h (0 Bft) N 351 0 min 9,7 C 10,8 C 0,0 km/h (0 Bft)
18.10.2017 22:30 11,0 C 92 % 1011,9 hPa 0,0 mm 0,2 km/h (0 Bft) N 351 0 min 9,8 C 11,0 C 3,2 km/h (1 Bft)
18.10.2017 22:15 11,4 C 91 % 1011,9 hPa 0,0 mm 0,1 km/h (0 Bft) N 351 0 min 10,0 C 11,4 C 3,2 km/h (1 Bft)
18.10.2017 22:00 11,8 C 91 % 1011,9 hPa 0,0 mm 0,0 km/h (0 Bft) N 351 0 min 10,4 C 11,8 C 0,0 km/h (0 Bft)
18.10.2017 21:45 12,1 C 90 % 1011,8 hPa 0,0 mm 0,0 km/h (0 Bft) N 351 0 min 10,5 C 12,1 C 0,0 km/h (0 Bft)
18.10.2017 21:30 12,3 C 89 % 1011,8 hPa 0,0 mm 0,0 km/h (0 Bft) N 351 0 min 10,5 C 12,3 C 0,0 km/h (0 Bft)
18.10.2017 21:15 12,6 C 89 % 1011,7 hPa 0,0 mm 0,1 km/h (0 Bft) N 351 0 min 10,8 C 12,6 C 3,2 km/h (1 Bft)
18.10.2017 21:00 13,2 C 87 % 1011,7 hPa 0,0 mm 0,0 km/h (0 Bft) N 352 0 min 11,1 C 13,2 C 1,6 km/h (1 Bft)
18.10.2017 20:45 13,9 C 85 % 1011,6 hPa 0,0 mm 0,0 km/h (0 Bft) N 352 0 min 11,4 C 13,9 C 0,0 km/h (0 Bft)
18.10.2017 20:30 14,3 C 84 % 1011,6 hPa 0,0 mm 0,0 km/h (0 Bft) N 352 0 min 11,6 C 14,3 C 0,0 km/h (0 Bft)
18.10.2017 20:15 14,6 C 83 % 1011,5 hPa 0,0 mm 0,4 km/h (0 Bft) N 352 0 min 11,7 C 14,6 C 3,2 km/h (1 Bft)
18.10.2017 20:00 14,8 C 83 % 1011,5 hPa 0,0 mm 0,3 km/h (0 Bft) N 352 0 min 11,9 C 14,8 C 1,6 km/h (1 Bft)
18.10.2017 19:45 15,5 C 82 % 1011,4 hPa 0,0 mm 1,0 km/h (0 Bft) N 352 0 min 12,4 C 15,5 C 6,4 km/h (2 Bft)
18.10.2017 19:30 16,4 C 78 % 1011,3 hPa 0,0 mm 0,1 km/h (0 Bft) S-SE 156 0 min 12,6 C 16,4 C 3,2 km/h (1 Bft)
18.10.2017 19:15 16,9 C 73 % 1011,3 hPa 0,0 mm 0,0 km/h (0 Bft) S-SE 156 0 min 12,0 C 16,9 C 1,6 km/h (1 Bft)
18.10.2017 19:00 17,3 C 74 % 1011,2 hPa 0,0 mm 0,1 km/h (0 Bft) S-SE 156 0 min 12,6 C 17,3 C 3,2 km/h (1 Bft)
18.10.2017 18:45 17,9 C 73 % 1011,1 hPa 0,0 mm 0,3 km/h (0 Bft) E 96 0 min 13,0 C 17,9 C 4,8 km/h (1 Bft)
18.10.2017 18:30 18,5 C 70 % 1011,0 hPa 0,0 mm 1,7 km/h (1 Bft) E 96 0 min 12,9 C 18,5 C 6,4 km/h (2 Bft)
18.10.2017 18:15 19,1 C 72 % 1010,7 hPa 0,0 mm 0,0 km/h (0 Bft) N-NO 346 0 min 13,9 C 19,1 C 1,6 km/h (1 Bft)
18.10.2017 18:00 19,6 C 70 % 1010,6 hPa 0,0 mm 1,0 km/h (0 Bft) NO 310 0 min 14,0 C 19,6 C 4,8 km/h (1 Bft)
_ Min-Heure 07:30 14:00 17:15 - 18:15 - - - 07:30 07:30 20:30
Minimum _ 6,4 C 61 % 1009,1 hPa - 0,0 km/h (0 Bft) - - - 5,8 C 6,4 C 0,0 km/h (0 Bft)
_ Max-Heure 15:45 08:30 09:15 18:00 15:30 - - 09:30 18:00 15:45 14:15
Maximum _ 20,0 C 97 % 1012,3 hPa 0,0 mm 11,7 km/h
N-NO (2 Bft)
- - 15 min 14,0 C 20,0 C 22,5 km/h
N (4 Bft)
Moyenne _ 13,1 C 84 % 1011,4 hPa #0,0 mm 1,7 km/h (1 Bft) O-NO - #6:00 h 10,1 C 13,1 C 5,1 km/h (1 Bft)